Atlantic - Newfoundland: Past 24 Hour Conditions

 

Daniel's Harbour

01:30 AM NDT 31 August 2014
This table is a summary of hourly weather conditions for the past 24 hours.
Date / Time
(NDT)
Wind(knots) Conditions Visibility(km) Pressure(kPa) Air tempC) Relative humidity(%) Dew pointC)
31 August 2014
1:30 SW 16 gust 27 N/A 6 101.0 15 86 13
0:30 SW 16 gust 26 N/A 6 101.0 16 82 13
30 August 2014
23:30 SSW 21 gust 32 N/A 13 101.1 17 77 13
22:30 SSW 24 gust 30 N/A 11 101.1 17 76 12
21:30 SSW 24 gust 30 N/A 13 101.2 16 77 12
20:30 SSW 23 gust 31 N/A 15 101.2 16 79 12
19:30 SSW 22 gust 32 N/A 15 101.2 16 79 13
18:30 SSW 24 gust 33 N/A 15 101.3 16 78 12
17:30 SSW 25 gust 33 N/A 13 101.3 16 77 12
16:30 SSW 22 gust 35 N/A 13 101.4 17 76 13
15:30 SSW 21 gust 30 N/A 15 101.5 17 77 13
14:30 SW 17 gust 29 N/A 15 101.5 17 74 13
13:30 SSW 20 gust 28 N/A 15 101.5 17 75 12
12:30 SSW 19 gust 28 N/A 15 101.6 17 73 12
11:30 SSW 18 N/A 15 101.6 17 75 12
10:30 SW 15 N/A 15 101.6 17 75 12
9:30 SW 16 N/A 15 101.6 16 73 11
8:30 SW 12 gust 20 N/A 15 101.6 16 75 11
7:30 SW 11 gust 19 N/A 15 101.7 15 75 11
6:30 SW 10 gust 17 N/A 15 101.6 15 75 10
5:30 SSW 10 gust 16 N/A 15 101.6 13 82 10
4:30 SSW 12 gust 18 N/A 15 101.6 12 79 9
3:30 SSW 16 N/A 15 101.6 12 72 7
2:30 S 13 gust 19 N/A 15 101.6 12 63 5
1:30 S 8 N/A 15 101.6 11 64 4
 
Map of Atlantic - Newfoundland marine weather areas Southwestern Grand Banks - 44138 Banquereau - 44139 Tail of the Bank - 44140 Nickerson Bank - 44251 Northeast Burgeo Bank - 44255 Blanc-Sablon Airport Cap Whittle Chevery Natashquan Airport Heath Point Miscou Island Grand Étang Ingonish Beach North Mountain St.Paul Island J.A. Douglas McCurdy Sydney Airport Charlottetown Airport East Point North Cape Argentia Bonavista Burgeo Cape Race Corner Brook Daniel's Harbour Englee Ferolle Point La Scie Port aux Basques Rocky Harbour Sagona Island St. Anthony Airport St. John's Int'l Airport St. Lawrence Stephenville Airport Twillingate Winterland Wreckhouse Cartwright Airport Mary's Harbour Grates Cove Pool's Island Marticot Island Long Pond Îles de la Madeleine Airport
Legend: buoyBuoy land stationLand Station